Time;durP1;ratioP1;P1;durP2;ratioP2;P2;SDS_P1;SDS_P2;PMS_P1;PMS_P2;Temp;Humidity;BMP_temperature;BMP_pressure;BME280_temperature;BME280_humidity;BME280_pressure;Samples;Min_cycle;Max_cycle;Signal;HPM_P1;HPM_P2
2021/10/09 00:00:24;;;;;;;38.35;26.95;;;;;;;6.85;100.00;96868.78;1019644;29;20035;-51
2021/10/09 00:00:55;;;;;;;38.78;27.73;;;;;;;6.86;100.00;96868.72;1023621;29;20119;-50
2021/10/09 00:01:26;;;;;;;43.60;28.92;;;;;;;6.88;100.00;96868.66;1023765;28;20208;-50
2021/10/09 00:01:57;;;;;;;38.40;27.58;;;;;;;6.88;100.00;96866.06;1027578;28;20073;-50
2021/10/09 00:02:28;;;;;;;38.00;28.55;;;;;;;6.85;100.00;96868.78;1031586;28;20070;-50
2021/10/09 00:02:59;;;;;;;39.28;27.67;;;;;;;6.84;100.00;96867.09;1027480;28;20266;-52
2021/10/09 00:03:30;;;;;;;42.15;28.88;;;;;;;6.82;100.00;96867.16;1019709;29;20031;-50
2021/10/09 00:04:00;;;;;;;39.78;27.92;;;;;;;6.83;100.00;96871.44;1019453;29;20028;-50
2021/10/09 00:04:31;;;;;;;38.58;27.38;;;;;;;6.81;100.00;96871.53;1023557;29;20026;-50
2021/10/09 00:05:02;;;;;;;36.67;27.85;;;;;;;6.80;100.00;96864.59;1019578;29;20027;-50
2021/10/09 00:05:33;;;;;;;41.47;28.83;;;;;;;6.78;100.00;96868.19;1015695;29;20534;-50
2021/10/09 00:06:04;;;;;;;41.17;27.65;;;;;;;6.75;100.00;96866.53;1019784;29;20260;-50
2021/10/09 00:06:35;;;;;;;41.85;29.13;;;;;;;6.77;100.00;96869.91;1023616;29;20103;-50
2021/10/09 00:07:05;;;;;;;38.97;28.17;;;;;;;6.75;100.00;96869.13;1023246;29;20020;-51
2021/10/09 00:07:36;;;;;;;42.15;30.55;;;;;;;6.74;100.00;96869.22;1019560;29;20024;-49
2021/10/09 00:08:14;;;;;;;43.58;29.15;;;;;;;6.74;100.00;96869.22;1019645;29;20502;-50
2021/10/09 00:08:46;;;;;;;41.40;28.65;;;;;;;6.73;100.00;96870.13;1024916;28;20024;-50
2021/10/09 00:09:17;;;;;;;46.22;29.13;;;;;;;6.72;100.00;96866.69;1027692;28;20368;-50
2021/10/09 00:09:50;;;;;;;37.28;27.73;;;;;;;6.70;100.00;96867.63;1026254;28;20046;-50
2021/10/09 00:10:26;;;;;;;42.08;28.63;;;;;;;6.70;100.00;96862.41;1024974;28;20111;-50
2021/10/09 00:10:58;;;;;;;42.05;28.67;;;;;;;6.69;100.00;96864.19;1023717;28;20254;-51
2021/10/09 00:11:36;;;;;;;40.85;29.00;;;;;;;6.70;100.00;96870.22;1025105;28;20673;-52
2021/10/09 00:12:07;;;;;;;45.45;29.52;;;;;;;6.70;100.00;96862.41;1023528;28;20310;-51
2021/10/09 00:12:38;;;;;;;39.92;27.95;;;;;;;6.70;100.00;96865.03;1025463;28;20747;-50
2021/10/09 00:13:09;;;;;;;43.55;29.73;;;;;;;6.69;100.00;96868.56;1019393;29;20031;-51
2021/10/09 00:13:40;;;;;;;42.58;28.30;;;;;;;6.67;100.00;96867.78;1015640;29;20355;-51
2021/10/09 00:14:12;;;;;;;39.10;28.48;;;;;;;6.67;100.00;96860.81;1015551;29;20268;-50
2021/10/09 00:14:43;;;;;;;45.00;29.00;;;;;;;6.67;100.00;96863.41;1016871;29;20016;-50
2021/10/09 00:15:14;;;;;;;40.83;28.48;;;;;;;6.67;100.00;96866.00;1020059;29;20279;-50
2021/10/09 00:15:45;;;;;;;38.47;27.70;;;;;;;6.66;100.00;96866.91;1024062;28;20078;-50
2021/10/09 00:16:16;;;;;;;41.78;28.20;;;;;;;6.63;100.00;96867.03;1023549;29;20704;-52
2021/10/09 00:16:46;;;;;;;42.75;29.55;;;;;;;6.66;100.00;96869.50;1019776;29;20430;-51
2021/10/09 00:17:19;;;;;;;43.75;28.98;;;;;;;6.65;100.00;96869.59;1019570;28;20268;-51
2021/10/09 00:17:50;;;;;;;40.25;28.52;;;;;;;6.63;100.00;96861.00;1019605;29;20019;-50
2021/10/09 00:18:21;;;;;;;41.38;29.08;;;;;;;6.62;100.00;96862.72;1019862;29;20358;-50
2021/10/09 00:18:51;;;;;;;41.75;29.95;;;;;;;6.65;100.00;96857.41;1016031;29;20024;-50
2021/10/09 00:19:22;;;;;;;43.40;28.45;;;;;;;6.66;100.00;96863.47;1015803;29;20059;-51
2021/10/09 00:19:52;;;;;;;40.88;28.08;;;;;;;6.70;100.00;96867.63;1015713;29;20471;-50
2021/10/09 00:20:23;;;;;;;41.17;29.25;;;;;;;6.71;100.00;96870.19;1019318;29;20521;-50
2021/10/09 00:20:54;;;;;;;41.05;28.98;;;;;;;6.71;100.00;96867.56;1015661;29;20067;-50
2021/10/09 00:21:25;;;;;;;44.03;29.88;;;;;;;6.70;100.00;96867.63;1019542;29;20315;-51
2021/10/09 00:21:55;;;;;;;43.10;28.80;;;;;;;6.73;100.00;96868.34;1019919;28;20070;-50
2021/10/09 00:22:26;;;;;;;38.42;27.80;;;;;;;6.74;100.00;96866.63;1023710;28;20027;-50
2021/10/09 00:22:58;;;;;;;38.97;28.55;;;;;;;6.75;100.00;96860.50;1027377;28;20398;-50
2021/10/09 00:23:29;;;;;;;37.55;27.90;;;;;;;6.75;100.00;96865.69;1027543;28;20548;-51
2021/10/09 00:24:00;;;;;;;39.33;28.60;;;;;;;6.74;100.00;96867.47;1031611;28;20270;-51
2021/10/09 00:24:32;;;;;;;39.17;27.98;;;;;;;6.74;100.00;96864.84;1027567;28;20274;-50
2021/10/09 00:25:05;;;;;;;39.50;27.35;;;;;;;6.75;100.00;96863.94;1027532;28;20270;-51
2021/10/09 00:25:35;;;;;;;36.25;28.38;;;;;;;6.74;100.00;96864.03;1027552;28;20262;-50
2021/10/09 00:26:06;;;;;;;41.78;28.35;;;;;;;6.74;100.00;96864.03;1020265;29;20302;-51
2021/10/09 00:26:37;;;;;;;40.97;27.98;;;;;;;6.75;100.00;96868.31;1015583;29;20510;-50
2021/10/09 00:27:08;;;;;;;36.45;27.50;;;;;;;6.76;100.00;96870.00;1015562;29;20288;-51
2021/10/09 00:27:39;;;;;;;37.95;27.38;;;;;;;6.74;100.00;96864.03;1015917;29;20104;-50
2021/10/09 00:28:09;;;;;;;39.20;27.73;;;;;;;6.74;100.00;96866.63;1020087;28;20398;-51
2021/10/09 00:28:40;;;;;;;38.17;27.63;;;;;;;6.71;100.00;96864.13;1019599;29;20028;-51
2021/10/09 00:29:11;;;;;;;39.47;29.75;;;;;;;6.73;100.00;96864.91;1019995;28;20024;-50
2021/10/09 00:29:42;;;;;;;43.45;27.52;;;;;;;6.73;100.00;96863.16;1016222;29;20276;-50
2021/10/09 00:30:13;;;;;;;40.47;26.60;;;;;;;6.73;100.00;96863.16;1016160;29;20063;-51
2021/10/09 00:30:43;;;;;;;39.70;27.25;;;;;;;6.77;100.00;96862.09;1020166;29;20023;-51
2021/10/09 00:31:14;;;;;;;42.67;28.08;;;;;;;6.78;100.00;96862.97;1016202;29;20038;-49
2021/10/09 00:31:45;;;;;;;41.10;28.80;;;;;;;6.79;100.00;96864.66;1016467;29;20450;-49
2021/10/09 00:32:16;;;;;;;39.75;28.55;;;;;;;6.77;100.00;96859.50;1012583;29;20332;-50
2021/10/09 00:32:46;;;;;;;41.70;26.77;;;;;;;6.74;100.00;96866.63;1012454;29;20429;-51
2021/10/09 00:33:17;;;;;;;38.70;27.55;;;;;;;6.74;100.00;96859.66;1012384;29;20115;-51
2021/10/09 00:33:49;;;;;;;38.60;27.83;;;;;;;6.73;100.00;96867.50;1016292;29;20048;-50
2021/10/09 00:34:19;;;;;;;38.63;27.35;;;;;;;6.71;100.00;96862.38;1016270;29;20116;-50
2021/10/09 00:34:50;;;;;;;39.80;27.05;;;;;;;6.71;100.00;96862.38;1012704;29;20631;-50
2021/10/09 00:35:21;;;;;;;37.83;28.35;;;;;;;6.65;100.00;96861.78;1016426;29;20094;-51
2021/10/09 00:35:59;;;;;;;40.15;28.05;;;;;;;6.63;100.00;96867.03;1016292;29;20024;-50
2021/10/09 00:36:30;;;;;;;40.95;29.00;;;;;;;6.66;100.00;96866.06;1020315;29;20023;-50
2021/10/09 00:37:00;;;;;;;43.80;28.58;;;;;;;6.66;100.00;96860.84;1021415;29;20346;-51
2021/10/09 00:37:31;;;;;;;39.42;28.85;;;;;;;6.64;100.00;96860.06;1026498;28;20329;-51
2021/10/09 00:38:02;;;;;;;41.05;26.45;;;;;;;6.63;100.00;96858.41;1032297;28;20398;-50
2021/10/09 00:38:32;;;;;;;38.67;28.08;;;;;;;6.64;100.00;96866.13;1028210;28;20113;-51
2021/10/09 00:39:04;;;;;;;45.33;29.17;;;;;;;6.64;100.00;96858.31;1024365;29;20015;-51
2021/10/09 00:39:35;;;;;;;45.45;29.25;;;;;;;6.62;100.00;96854.91;1020133;29;20585;-52
2021/10/09 00:40:06;;;;;;;38.03;26.40;;;;;;;6.67;100.00;96857.34;1020432;29;20303;-48
2021/10/09 00:40:37;;;;;;;41.85;29.15;;;;;;;6.67;100.00;96855.59;1016532;29;20099;-50
2021/10/09 00:41:08;;;;;;;37.95;27.95;;;;;;;6.64;100.00;96854.88;1012842;29;20264;-50
2021/10/09 00:41:38;;;;;;;36.90;27.23;;;;;;;6.62;100.00;96854.91;1012199;29;20024;-51
2021/10/09 00:42:09;;;;;;;44.75;27.98;;;;;;;6.66;100.00;96853.03;1024014;29;20031;-51
2021/10/09 00:42:40;;;;;;;37.42;27.50;;;;;;;6.65;100.00;96857.41;1024233;28;20034;-50
2021/10/09 00:43:11;;;;;;;39.05;27.13;;;;;;;6.66;100.00;96860.84;1012193;29;20025;-51
2021/10/09 00:43:41;;;;;;;37.58;26.15;;;;;;;6.65;100.00;96854.81;1020243;29;20498;-50
2021/10/09 00:44:14;;;;;;;34.13;25.05;;;;;;;6.67;100.00;96857.34;1020320;29;20478;-50
2021/10/09 00:44:45;;;;;;;35.92;26.02;;;;;;;6.71;100.00;96851.09;1021151;28;20070;-50
2021/10/09 00:45:16;;;;;;;38.67;26.63;;;;;;;6.70;100.00;96850.28;1024175;29;20286;-50
2021/10/09 00:45:56;;;;;;;43.78;26.75;;;;;;;6.70;100.00;96854.59;1020120;29;20027;-50
2021/10/09 00:46:27;;;;;;;;;;;;;;;6.71;100.00;96854.56;1020799;29;20769;-50
2021/10/09 00:47:00;;;;;;;37.55;25.40;;;;;;;6.71;100.00;96856.31;1023072;28;19911;-50
2021/10/09 00:47:31;;;;;;;37.30;26.45;;;;;;;6.70;100.00;96852.88;1029867;28;20035;-50
2021/10/09 00:48:02;;;;;;;40.90;27.58;;;;;;;6.70;100.00;96859.81;1024063;29;20820;-51
2021/10/09 00:48:33;;;;;;;38.45;26.00;;;;;;;6.68;100.00;96853.81;1020249;29;20375;-51
2021/10/09 00:49:05;;;;;;;37.85;26.27;;;;;;;6.64;100.00;96850.50;1020348;29;20255;-50
2021/10/09 00:49:35;;;;;;;34.20;26.25;;;;;;;6.66;100.00;96860.84;1020942;28;20267;-49
2021/10/09 00:50:07;;;;;;;36.25;25.50;;;;;;;6.67;100.00;96853.00;1028451;28;20270;-49
2021/10/09 00:50:38;;;;;;;35.72;25.50;;;;;;;6.66;100.00;96851.28;1028145;28;20023;-50
2021/10/09 00:51:08;;;;;;;35.08;25.08;;;;;;;6.67;100.00;96853.00;1024344;29;20262;-49
2021/10/09 00:51:39;;;;;;;37.33;26.45;;;;;;;6.69;100.00;96851.16;1020078;29;20489;-51
2021/10/09 00:52:10;;;;;;;39.90;25.50;;;;;;;6.70;100.00;96849.41;1020022;29;20067;-50
2021/10/09 00:52:41;;;;;;;34.10;25.38;;;;;;;6.65;100.00;96847.00;1023889;29;20026;-51
2021/10/09 00:53:12;;;;;;;38.35;27.48;;;;;;;6.65;100.00;96853.97;1016129;29;20824;-50
2021/10/09 00:53:43;;;;;;;36.25;26.30;;;;;;;6.61;100.00;96848.88;1016208;29;20576;-50
2021/10/09 00:54:15;;;;;;;35.67;26.10;;;;;;;6.61;100.00;96845.44;1024056;29;20365;-50
2021/10/09 00:54:47;;;;;;;37.65;26.63;;;;;;;6.59;100.00;96849.84;1024216;29;20074;-51
2021/10/09 00:55:18;;;;;;;36.70;27.88;;;;;;;6.58;100.00;96848.97;1020284;29;20717;-51
2021/10/09 00:55:49;;;;;;;38.63;25.73;;;;;;;6.56;100.00;96852.56;1020069;29;20349;-51
2021/10/09 00:56:20;;;;;;;33.60;25.45;;;;;;;6.58;100.00;96851.59;1020173;29;20028;-50
2021/10/09 00:56:51;;;;;;;37.17;26.25;;;;;;;6.58;100.00;96845.53;1016274;29;20260;-51
2021/10/09 00:57:22;;;;;;;36.25;25.88;;;;;;;6.57;100.00;96847.31;1020100;29;20070;-51
2021/10/09 00:57:53;;;;;;;37.30;26.75;;;;;;;6.54;100.00;96842.22;1019888;29;20363;-52
2021/10/09 00:58:23;;;;;;;33.00;24.75;;;;;;;6.57;100.00;96849.91;1020133;29;20476;-51
2021/10/09 00:58:54;;;;;;;38.25;26.73;;;;;;;6.55;100.00;96851.72;1024115;29;20564;-50
2021/10/09 00:59:26;;;;;;;33.88;25.65;;;;;;;6.56;100.00;96844.75;1024359;28;20042;-50
2021/10/09 00:59:59;;;;;;;37.53;26.95;;;;;;;6.52;100.00;96837.97;1031999;28;20018;-51
2021/10/09 01:00:30;;;;;;;38.80;26.38;;;;;;;6.56;100.00;96845.59;1016011;28;20331;-50
2021/10/09 01:01:01;;;;;;;36.40;26.65;;;;;;;6.56;100.00;96847.38;1020064;29;20318;-51
2021/10/09 01:01:31;;;;;;;36.03;25.65;;;;;;;6.54;100.00;96842.22;1016273;29;20084;-50
2021/10/09 01:02:03;;;;;;;31.23;25.33;;;;;;;6.52;100.00;96845.78;1016154;29;20119;-50
2021/10/09 01:02:37;;;;;;;38.80;27.63;;;;;;;6.48;100.00;96846.84;1016063;29;20024;-50
2021/10/09 01:03:09;;;;;;;37.58;25.52;;;;;;;6.49;100.00;96840.69;1016769;29;20359;-51
2021/10/09 01:03:40;;;;;;;34.38;25.60;;;;;;;6.49;100.00;96845.91;1013032;29;20269;-52
2021/10/09 01:04:11;;;;;;;37.83;26.73;;;;;;;6.47;100.00;96847.72;1017857;29;20671;-51
2021/10/09 01:04:42;;;;;;;37.80;27.17;;;;;;;6.47;100.00;96842.50;1016193;29;20028;-49
2021/10/09 01:05:13;;;;;;;39.22;27.00;;;;;;;6.46;100.00;96844.28;1024130;29;20263;-51
2021/10/09 01:05:43;;;;;;;37.83;27.05;;;;;;;6.43;100.00;96850.44;1024150;29;20025;-50
2021/10/09 01:06:14;;;;;;;37.10;27.25;;;;;;;6.43;100.00;96849.59;1020353;29;20049;-50
2021/10/09 01:06:45;;;;;;;34.05;25.92;;;;;;;6.43;100.00;96850.44;1020037;29;20024;-50
2021/10/09 01:07:16;;;;;;;39.80;25.98;;;;;;;6.42;100.00;96846.16;1019956;29;20031;-51
2021/10/09 01:07:46;;;;;;;37.35;25.30;;;;;;;6.44;100.00;96846.09;1016257;29;20032;-50
2021/10/09 01:08:17;;;;;;;34.28;25.13;;;;;;;6.48;100.00;96839.03;1016582;29;20024;-50
2021/10/09 01:08:48;;;;;;;34.03;25.05;;;;;;;6.45;100.00;96849.53;1020296;29;20051;-52
2021/10/09 01:09:18;;;;;;;39.28;25.52;;;;;;;6.44;100.00;96848.69;1023990;29;20061;-51
2021/10/09 01:09:49;;;;;;;34.15;25.02;;;;;;;6.45;100.00;96844.34;1020079;29;20031;-50
2021/10/09 01:10:20;;;;;;;34.53;24.45;;;;;;;6.48;100.00;96839.03;1023856;29;20019;-50
2021/10/09 01:10:51;;;;;;;41.47;26.35;;;;;;;6.46;100.00;96836.47;1016072;29;20027;-51
2021/10/09 01:11:21;;;;;;;38.22;25.90;;;;;;;6.43;100.00;96845.22;1024045;29;20027;-50
2021/10/09 01:11:52;;;;;;;36.72;26.50;;;;;;;6.46;100.00;96846.00;1020034;29;20133;-52
2021/10/09 01:12:23;;;;;;;36.17;25.52;;;;;;;6.42;100.00;96843.56;1016393;29;20534;-51
2021/10/09 01:12:53;;;;;;;36.38;25.65;;;;;;;6.43;100.00;96842.63;1019887;29;20507;-50
2021/10/09 01:13:24;;;;;;;39.25;25.75;;;;;;;6.41;100.00;96841.84;1016436;29;20106;-51
2021/10/09 01:13:55;;;;;;;35.33;24.50;;;;;;;6.42;100.00;96850.53;1016003;29;20028;-50
2021/10/09 01:14:26;;;;;;;34.70;24.95;;;;;;;6.44;100.00;96838.28;1012320;29;20028;-50
2021/10/09 01:14:56;;;;;;;33.53;24.65;;;;;;;6.41;100.00;96841.00;1016034;29;20031;-52
2021/10/09 01:15:29;;;;;;;33.25;24.98;;;;;;;6.42;100.00;96833.13;1019997;29;20505;-51
2021/10/09 01:16:00;;;;;;;34.33;24.38;;;;;;;6.45;100.00;96833.94;1020508;28;20063;-51
2021/10/09 01:16:31;;;;;;;29.90;23.98;;;;;;;6.46;100.00;96846.00;1016202;29;20276;-50
2021/10/09 01:17:01;;;;;;;32.58;25.00;;;;;;;6.45;100.00;96836.53;1016478;29;20422;-51
2021/10/09 01:17:32;;;;;;;32.53;24.75;;;;;;;6.46;100.00;96846.00;1019994;29;20038;-47
2021/10/09 01:18:16;;;;;;;34.20;23.60;;;;;;;6.42;100.00;96838.34;1016158;29;20488;-51
2021/10/09 01:18:49;;;;;;;32.90;24.38;;;;;;;6.40;100.00;96837.56;1012193;29;20043;-51
2021/10/09 01:19:20;;;;;;;33.85;23.88;;;;;;;6.43;100.00;96841.78;1012161;29;20281;-50
2021/10/09 01:19:51;;;;;;;34.53;23.80;;;;;;;6.41;100.00;96844.44;1020060;29;20673;-50
2021/10/09 01:20:22;;;;;;;32.95;24.60;;;;;;;6.43;100.00;96847.00;1027859;28;20502;-51
2021/10/09 01:20:55;;;;;;;38.88;24.05;;;;;;;6.45;100.00;96847.78;1020052;29;20470;-52
2021/10/09 01:21:26;;;;;;;34.75;23.98;;;;;;;6.47;100.00;96835.53;1012222;29;20038;-50
2021/10/09 01:21:57;;;;;;;33.90;22.55;;;;;;;6.45;100.00;96832.16;1020018;29;20769;-51
2021/10/09 01:22:28;;;;;;;32.30;23.05;;;;;;;6.43;100.00;96839.19;1019954;29;20063;-50
2021/10/09 01:23:03;;;;;;;34.38;23.75;;;;;;;6.46;100.00;96835.59;1015922;29;20304;-50
2021/10/09 01:23:35;;;;;;;31.85;24.10;;;;;;;6.42;100.00;96843.56;1020196;29;20028;-50
2021/10/09 01:24:06;;;;;;;33.17;23.30;;;;;;;6.43;100.00;96842.63;1013211;29;20265;-51
2021/10/09 01:24:37;;;;;;;29.15;22.10;;;;;;;6.45;100.00;96841.72;1014136;29;20798;-51
2021/10/09 01:25:09;;;;;;;35.13;23.33;;;;;;;6.48;100.00;96839.84;1019860;29;20015;-50
2021/10/09 01:25:39;;;;;;;33.17;23.65;;;;;;;6.47;100.00;96843.34;1020387;29;20247;-50
2021/10/09 01:26:10;;;;;;;31.20;22.58;;;;;;;6.46;100.00;96838.19;1020585;28;20268;-50
2021/10/09 01:26:42;;;;;;;36.78;23.45;;;;;;;6.48;100.00;96836.41;1024003;28;20027;-50
2021/10/09 01:27:15;;;;;;;30.55;22.33;;;;;;;6.45;100.00;96839.13;1023812;28;20418;-50
2021/10/09 01:27:46;;;;;;;29.65;22.90;;;;;;;6.43;100.00;96833.97;1020215;29;20777;-50
2021/10/09 01:28:16;;;;;;;34.50;22.60;;;;;;;6.40;100.00;96839.28;1027980;28;20309;-50
2021/10/09 01:28:49;;;;;;;32.60;23.30;;;;;;;6.37;100.00;96842.88;1031953;28;20030;-50
2021/10/09 01:29:20;;;;;;;28.90;22.92;;;;;;;6.37;100.00;96840.28;1031432;28;20034;-50
2021/10/09 01:29:50;;;;;;;30.98;22.65;;;;;;;6.37;100.00;96839.44;1023915;29;20275;-50
2021/10/09 01:30:21;;;;;;;35.97;24.70;;;;;;;6.36;100.00;96846.41;1023438;29;20050;-50
2021/10/09 01:30:53;;;;;;;30.27;23.95;;;;;;;6.36;100.00;96848.13;1023981;29;20490;-51
2021/10/09 01:31:24;;;;;;;31.55;22.48;;;;;;;6.34;100.00;96842.97;1015847;29;20473;-51
2021/10/09 01:31:55;;;;;;;33.75;22.98;;;;;;;6.34;100.00;96839.53;1012202;29;20272;-50
2021/10/09 01:32:26;;;;;;;34.67;23.67;;;;;;;6.33;100.00;96843.06;1019989;29;20032;-50
2021/10/09 01:32:56;;;;;;;33.40;23.88;;;;;;;6.35;100.00;96841.25;1019780;29;20099;-50
2021/10/09 01:33:27;;;;;;;33.80;22.48;;;;;;;6.37;100.00;96848.09;1019839;29;20256;-51
2021/10/09 01:33:58;;;;;;;31.38;23.27;;;;;;;6.35;100.00;96847.28;1016056;29;20051;-51
2021/10/09 01:34:29;;;;;;;34.97;22.77;;;;;;;6.34;100.00;96845.59;1023842;29;20493;-50
2021/10/09 01:35:04;;;;;;;29.77;21.73;;;;;;;6.34;100.00;96840.38;1024212;28;20116;-51
2021/10/09 01:35:53;;;;;;;33.17;22.23;;;;;;;6.32;100.00;96846.56;1028732;28;20317;-50
2021/10/09 01:36:29;;;;;;;32.53;22.70;;;;;;;6.31;100.00;96842.28;1028028;28;20427;-51
2021/10/09 01:37:00;;;;;;;32.63;23.55;;;;;;;6.28;100.00;96840.63;1023961;28;20295;-50
2021/10/09 01:37:40;;;;;;;34.50;23.98;;;;;;;6.24;100.00;96836.47;1020045;29;20287;-51
2021/10/09 01:38:11;;;;;;;34.42;22.48;;;;;;;6.28;100.00;96840.63;1022235;29;20030;-50
2021/10/09 01:38:51;;;;;;;35.72;24.17;;;;;;;6.30;100.00;96840.56;1025373;28;20453;-50
2021/10/09 01:39:22;;;;;;;32.15;21.65;;;;;;;6.30;100.00;96838.81;1025168;28;20595;-50
2021/10/09 01:39:53;;;;;;;31.90;22.92;;;;;;;6.30;100.00;96845.78;1023870;28;20125;-51
2021/10/09 01:40:23;;;;;;;32.20;22.05;;;;;;;6.27;100.00;96844.16;1019897;29;20036;-50
2021/10/09 01:40:55;;;;;;;36.60;23.30;;;;;;;6.26;100.00;96841.59;1015946;29;20529;-50
2021/10/09 01:41:26;;;;;;;30.98;22.38;;;;;;;6.26;100.00;96846.81;1012289;29;20475;-50
2021/10/09 01:41:56;;;;;;;35.50;22.40;;;;;;;6.22;100.00;96841.72;1016225;29;20303;-50
2021/10/09 01:42:27;;;;;;;30.65;22.50;;;;;;;6.21;100.00;96847.84;1019898;29;20019;-50
2021/10/09 01:42:58;;;;;;;36.17;22.65;;;;;;;6.26;100.00;96839.00;1019873;29;20051;-50
2021/10/09 01:43:28;;;;;;;31.30;23.10;;;;;;;6.27;100.00;96844.16;1012115;29;20190;-51
2021/10/09 01:43:59;;;;;;;36.45;22.25;;;;;;;6.27;100.00;96838.09;1015961;29;20081;-50
2021/10/09 01:44:30;;;;;;;31.02;22.80;;;;;;;6.25;100.00;96838.16;1020015;29;20115;-50
2021/10/09 01:45:03;;;;;;;32.30;22.13;;;;;;;6.19;100.00;96833.19;1023884;29;20031;-51
2021/10/09 01:45:33;;;;;;;35.08;23.15;;;;;;;6.18;100.00;96847.94;1024448;28;20247;-48
2021/10/09 01:46:04;;;;;;;32.42;22.10;;;;;;;6.16;100.00;96841.97;1027868;28;20338;-50
2021/10/09 01:46:35;;;;;;;32.80;22.13;;;;;;;6.18;100.00;96849.72;1028236;28;20105;-50
2021/10/09 01:47:05;;;;;;;35.63;22.02;;;;;;;6.17;100.00;96842.81;1019969;29;20115;-49
2021/10/09 01:47:40;;;;;;;32.55;23.15;;;;;;;6.16;100.00;96835.91;1019942;29;20451;-49
2021/10/09 01:48:11;;;;;;;34.42;22.90;;;;;;;6.15;100.00;96842.00;1019905;29;20102;-51
2021/10/09 01:48:42;;;;;;;37.25;23.17;;;;;;;6.17;100.00;96838.44;1016757;29;20260;-50
2021/10/09 01:49:13;;;;;;;34.08;22.92;;;;;;;6.17;100.00;96845.41;1020592;29;20267;-51
2021/10/09 01:49:43;;;;;;;35.15;23.55;;;;;;;6.16;100.00;96836.75;1023915;28;20484;-51
2021/10/09 01:50:15;;;;;;;33.45;22.27;;;;;;;6.16;100.00;96843.72;1020031;29;20110;-51
2021/10/09 01:50:46;;;;;;;30.33;22.13;;;;;;;6.14;100.00;96841.19;1024240;28;20469;-50
2021/10/09 01:51:16;;;;;;;30.45;22.75;;;;;;;6.13;100.00;96841.22;1020060;29;20287;-50
2021/10/09 01:51:47;;;;;;;33.72;20.95;;;;;;;6.13;100.00;96841.22;1020282;29;20500;-50
2021/10/09 01:52:18;;;;;;;29.42;20.73;;;;;;;6.10;100.00;96836.13;1015943;28;20531;-50
2021/10/09 01:52:49;;;;;;;31.52;23.27;;;;;;;6.11;100.00;96838.69;1019990;29;20098;-50
2021/10/09 01:53:19;;;;;;;35.65;24.75;;;;;;;6.09;100.00;96843.09;1019784;29;20421;-50
2021/10/09 01:53:50;;;;;;;33.28;21.65;;;;;;;6.14;100.00;96840.34;1020006;29;20056;-51
2021/10/09 01:54:20;;;;;;;30.75;22.58;;;;;;;6.11;100.00;96835.25;1023746;29;20023;-50
2021/10/09 01:54:51;;;;;;;34.28;23.50;;;;;;;6.11;100.00;96845.66;1016184;29;20097;-50
2021/10/09 01:55:22;;;;;;;33.78;23.92;;;;;;;6.11;100.00;96843.88;1020204;29;20016;-51
2021/10/09 01:55:53;;;;;;;34.90;22.02;;;;;;;6.14;100.00;96840.34;1019967;29;20619;-50
2021/10/09 01:56:23;;;;;;;33.47;23.08;;;;;;;6.15;100.00;96840.25;1023704;29;20114;-50
2021/10/09 01:56:54;;;;;;;30.58;22.92;;;;;;;6.14;100.00;96837.72;1019909;29;20102;-51
2021/10/09 01:57:24;;;;;;;30.40;22.02;;;;;;;6.11;100.00;96832.63;1012175;29;20099;-51
2021/10/09 01:57:55;;;;;;;32.13;21.25;;;;;;;6.12;100.00;96840.38;1019827;29;20044;-50
2021/10/09 01:58:26;;;;;;;35.53;22.48;;;;;;;6.15;100.00;96844.63;1019750;29;20102;-50
2021/10/09 01:58:56;;;;;;;31.80;22.20;;;;;;;6.15;100.00;96840.25;1015857;29;20047;-51
2021/10/09 01:59:27;;;;;;;31.05;22.45;;;;;;;6.15;100.00;96839.41;1020047;29;20023;-51
2021/10/09 01:59:57;;;;;;;30.95;21.60;;;;;;;6.15;100.00;96840.25;1019762;29;20023;-50
2021/10/09 02:00:28;;;;;;;30.80;21.30;;;;;;;6.12;100.00;96835.19;1015952;29;20059;-50
2021/10/09 02:00:59;;;;;;;28.42;21.30;;;;;;;6.14;100.00;96837.72;1019888;29;20016;-51
2021/10/09 02:01:30;;;;;;;31.70;22.42;;;;;;;6.12;100.00;96837.78;1016205;29;20012;-51
2021/10/09 02:02:01;;;;;;;26.73;20.67;;;;;;;6.09;100.00;96837.88;1020416;28;20046;-51
2021/10/09 02:02:31;;;;;;;33.22;22.30;;;;;;;6.09;100.00;96829.25;1016124;29;20347;-49
2021/10/09 02:03:04;;;;;;;32.08;22.40;;;;;;;6.11;100.00;96838.69;1019897;29;20429;-51
2021/10/09 02:03:35;;;;;;;34.75;22.70;;;;;;;6.14;100.00;96840.34;1019934;29;20087;-50
2021/10/09 02:04:06;;;;;;;32.63;21.52;;;;;;;6.13;100.00;96839.47;1016842;29;20264;-50
2021/10/09 02:04:37;;;;;;;30.50;21.60;;;;;;;6.11;100.00;96832.63;1023965;28;20416;-51
2021/10/09 02:05:07;;;;;;;29.98;22.48;;;;;;;6.13;100.00;96836.88;1019842;29;20296;-50
2021/10/09 02:05:38;;;;;;;30.27;21.92;;;;;;;6.15;100.00;96839.41;1015976;29;20437;-51
2021/10/09 02:06:09;;;;;;;32.80;22.13;;;;;;;6.14;100.00;96841.19;1016428;29;20414;-51
2021/10/09 02:06:39;;;;;;;29.35;20.70;;;;;;;6.14;100.00;96838.56;1016145;29;20091;-50
2021/10/09 02:07:16;;;;;;;28.65;22.23;;;;;;;6.15;100.00;96835.03;1015953;29;20016;-50
2021/10/09 02:07:47;;;;;;;32.88;22.52;;;;;;;6.15;100.00;96835.03;1023751;29;20023;-50
2021/10/09 02:08:18;;;;;;;27.83;21.17;;;;;;;6.15;100.00;96834.22;1019978;29;20255;-50
2021/10/09 02:08:49;;;;;;;34.05;22.15;;;;;;;6.16;100.00;96835.91;1019729;29;20016;-52
2021/10/09 02:09:19;;;;;;;30.95;21.88;;;;;;;6.16;100.00;96839.34;1019896;29;20047;-50
2021/10/09 02:09:51;;;;;;;29.80;21.73;;;;;;;6.17;100.00;96841.03;1023721;29;20477;-51
2021/10/09 02:10:22;;;;;;;28.80;21.70;;;;;;;6.15;100.00;96835.03;1023596;29;20019;-51
2021/10/09 02:10:58;;;;;;;34.08;21.52;;;;;;;6.15;100.00;96835.03;1015901;29;20288;-50
2021/10/09 02:11:39;;;;;;;32.42;22.25;;;;;;;6.16;100.00;96835.91;1015979;29;20430;-52
2021/10/09 02:12:11;;;;;;;30.20;22.73;;;;;;;6.15;100.00;96831.59;1019842;29;20278;-51
2021/10/09 02:12:42;;;;;;;36.03;21.08;;;;;;;6.11;100.00;96836.06;1023689;28;20270;-51
2021/10/09 02:13:15;;;;;;;32.83;21.48;;;;;;;6.12;100.00;96834.31;1019679;29;20348;-50
2021/10/09 02:13:54;;;;;;;35.47;21.55;;;;;;;6.09;100.00;96830.09;1019798;29;20012;-51
2021/10/09 02:14:41;;;;;;;31.17;20.70;;;;;;;6.09;100.00;96830.09;1027917;28;20325;-51
2021/10/09 02:15:20;;;;;;;31.38;22.42;;;;;;;6.11;100.00;96832.63;1023794;28;20106;-50
2021/10/09 02:16:12;;;;;;;32.40;21.23;;;;;;;6.09;100.00;96829.25;1015914;29;20275;-51
2021/10/09 02:26:08;;;;;;;34.95;21.38;;;;;;;5.93;100.00;96837.59;1023906;29;20262;-51
2021/10/09 02:26:39;;;;;;;32.22;20.60;;;;;;;5.93;100.00;96836.75;1021818;29;20299;-50
2021/10/09 02:27:10;;;;;;;32.20;20.83;;;;;;;5.91;100.00;96838.56;1019710;29;20016;-51
2021/10/09 02:27:41;;;;;;;34.00;22.00;;;;;;;5.91;100.00;96835.94;1019791;29;20566;-50
2021/10/09 02:28:14;;;;;;;34.28;22.77;;;;;;;5.91;100.00;96838.56;1020186;29;20103;-52
2021/10/09 02:28:45;;;;;;;35.53;23.20;;;;;;;5.91;100.00;96843.75;1019681;29;20275;-50
2021/10/09 02:29:15;;;;;;;34.45;23.33;;;;;;;5.93;100.00;96839.34;1020364;29;20263;-50
2021/10/09 02:29:46;;;;;;;33.38;22.05;;;;;;;5.95;100.00;96842.72;1023631;29;20047;-50
2021/10/09 02:30:16;;;;;;;30.02;22.27;;;;;;;5.93;100.00;96842.81;1019819;29;20030;-50
2021/10/09 02:30:47;;;;;;;30.65;20.30;;;;;;;5.91;100.00;96842.03;1015883;29;20051;-51
2021/10/09 02:31:18;;;;;;;32.17;21.73;;;;;;;5.90;100.00;96845.50;1023726;29;20035;-51
2021/10/09 02:31:49;;;;;;;36.13;22.42;;;;;;;5.89;100.00;96838.59;1027663;28;20027;-50
2021/10/09 02:32:20;;;;;;;34.78;23.23;;;;;;;5.90;100.00;96839.47;1028092;28;20018;-50
2021/10/09 02:32:50;;;;;;;30.88;20.80;;;;;;;5.93;100.00;96837.59;1023659;28;20342;-49
2021/10/09 02:33:21;;;;;;;28.95;20.77;;;;;;;5.96;100.00;96841.88;1015882;29;20163;-50
2021/10/09 02:33:52;;;;;;;32.17;22.23;;;;;;;5.96;100.00;96842.72;1015635;29;20024;-51
2021/10/09 02:34:23;;;;;;;26.58;21.27;;;;;;;5.96;100.00;96841.88;1015925;29;20363;-50
2021/10/09 02:34:54;;;;;;;30.85;21.45;;;;;;;5.96;100.00;96840.09;1019865;29;20508;-51